Time;durP1;ratioP1;P1;durP2;ratioP2;P2;SDS_P1;SDS_P2;PMS_P1;PMS_P2;Temp;Humidity;BMP_temperature;BMP_pressure;BME280_temperature;BME280_humidity;BME280_pressure;Samples;Min_cycle;Max_cycle;Signal;HPM_P1;HPM_P2
2022/07/23 00:02:28;;;;;;;13.93;7.13;;;;;;;20.84;71.31;97618.09;6228195;28;20235;-85
2022/07/23 00:05:32;;;;;;;8.20;6.47;;;;;;;20.84;71.62;97620.78;6213862;28;20231;-85
2022/07/23 00:08:36;;;;;;;6.63;6.03;;;;;;;20.81;71.34;97616.63;6204735;28;20229;-85
2022/07/23 00:11:38;;;;;;;10.00;9.00;;;;;;;20.82;71.28;97614.78;6226638;28;20234;-85
2022/07/23 00:14:41;;;;;;;8.57;7.27;;;;;;;20.77;71.55;97620.69;6227983;28;20243;-86
2022/07/23 00:17:45;;;;;;;7.10;6.50;;;;;;;20.67;71.46;97630.88;6216277;28;20239;-84
2022/07/23 00:20:52;;;;;;;6.83;6.23;;;;;;;20.71;71.66;97621.44;6213565;28;20228;-85
2022/07/23 00:23:54;;;;;;;7.60;6.50;;;;;;;20.69;71.84;97633.38;6229176;28;20222;-85
2022/07/23 00:26:56;;;;;;;6.73;6.13;;;;;;;20.68;71.77;97637.06;6214672;28;20238;-86
2022/07/23 00:29:58;;;;;;;7.60;6.83;;;;;;;20.63;71.97;97634.97;6213082;28;20656;-86
2022/07/23 00:33:04;;;;;;;6.77;6.17;;;;;;;20.60;72.04;97641.53;6228010;28;20238;-85
2022/07/23 00:36:06;;;;;;;7.47;6.83;;;;;;;20.55;72.26;97640.44;6211377;28;20668;-86
2022/07/23 00:39:09;;;;;;;7.63;6.87;;;;;;;20.46;72.17;97639.69;6213789;28;20337;-86
2022/07/23 00:42:11;;;;;;;7.47;6.80;;;;;;;20.41;72.33;97641.28;6209205;28;20228;-86
2022/07/23 00:45:13;;;;;;;7.40;6.80;;;;;;;20.52;72.48;97638.13;6220154;28;20240;-85
2022/07/23 00:48:15;;;;;;;7.20;6.50;;;;;;;20.54;72.19;97641.47;6235345;28;20215;-85
2022/07/23 00:51:17;;;;;;;6.90;6.27;;;;;;;20.58;72.34;97638.19;6221745;28;20599;-85
2022/07/23 00:54:23;;;;;;;6.60;6.10;;;;;;;20.61;72.50;97645.88;6222759;28;20208;-85
2022/07/23 00:57:25;;;;;;;7.53;6.80;;;;;;;20.68;72.22;97645.97;6221214;28;20238;-85
2022/07/23 01:00:30;;;;;;;7.53;6.83;;;;;;;20.61;72.07;97645.88;6236743;28;20236;-85
2022/07/23 01:03:32;;;;;;;6.80;6.30;;;;;;;20.57;72.28;97641.91;6221719;28;20244;-85
2022/07/23 01:06:37;;;;;;;7.57;6.87;;;;;;;20.52;72.54;97647.00;6237249;28;20232;-85
2022/07/23 01:09:40;;;;;;;8.60;7.77;;;;;;;20.51;72.44;97639.97;6220851;28;20346;-85
2022/07/23 01:12:42;;;;;;;7.70;7.00;;;;;;;20.54;72.70;97636.94;6196352;28;20327;-85
2022/07/23 01:15:44;;;;;;;7.63;6.90;;;;;;;20.51;72.97;97648.03;6215429;28;20261;-85
2022/07/23 01:18:46;;;;;;;8.43;7.23;;;;;;;20.55;72.79;97652.00;6215523;28;20231;-85
2022/07/23 01:21:51;;;;;;;8.03;7.33;;;;;;;20.52;72.94;97676.50;6200275;28;20228;-85
2022/07/23 01:24:53;;;;;;;8.30;7.50;;;;;;;20.53;73.26;97688.91;6174776;28;20282;-85
2022/07/23 01:27:58;;;;;;;7.47;6.73;;;;;;;20.52;72.76;97684.53;6211978;28;20236;-85
2022/07/23 01:31:00;;;;;;;10.03;7.97;;;;;;;20.58;72.77;97673.06;6232404;28;20227;-85
2022/07/23 01:34:07;;;;;;;8.20;7.50;;;;;;;20.61;72.20;97666.50;6231498;28;20255;-86
2022/07/23 01:37:10;;;;;;;9.00;7.87;;;;;;;20.74;71.78;97663.16;6207440;28;20727;-85
2022/07/23 01:40:12;;;;;;;7.63;6.93;;;;;;;21.02;70.67;97658.75;6201226;28;20285;-85
2022/07/23 01:43:14;;;;;;;7.67;7.07;;;;;;;21.17;70.15;97650.63;6233035;28;20243;-85
2022/07/23 01:46:18;;;;;;;7.30;6.70;;;;;;;21.26;69.27;97652.25;6214692;28;20254;-85
2022/07/23 01:49:23;;;;;;;7.97;7.23;;;;;;;21.35;69.09;97641.19;6199466;28;20239;-85
2022/07/23 01:52:44;;;;;;;7.93;7.30;;;;;;;21.47;69.12;97628.03;6233041;28;20232;-85
2022/07/23 01:55:46;;;;;;;9.70;8.90;;;;;;;21.94;68.98;97622.03;6198455;28;20766;-85
2022/07/23 01:58:49;;;;;;;10.73;9.77;;;;;;;22.62;66.45;97604.22;6213947;28;20266;-86
2022/07/23 02:01:51;;;;;;;9.83;8.93;;;;;;;23.00;65.40;97596.50;6184518;28;20316;-85
2022/07/23 02:04:54;;;;;;;10.47;8.07;;;;;;;22.95;65.37;97595.47;6190549;28;20229;-86
2022/07/23 02:08:00;;;;;;;8.63;7.70;;;;;;;22.90;65.80;97592.56;6174850;28;20644;-86
2022/07/23 02:11:07;;;;;;;11.60;8.90;;;;;;;22.78;66.45;97598.53;6189543;28;20224;-86
2022/07/23 02:14:09;;;;;;;10.63;9.20;;;;;;;22.78;66.63;97590.44;6190289;28;20231;-86
2022/07/23 02:17:11;;;;;;;9.77;8.87;;;;;;;22.96;66.23;97594.44;6189706;28;20294;-85
2022/07/23 02:20:14;;;;;;;9.40;8.23;;;;;;;23.11;65.41;97592.41;6174664;28;20239;-86
2022/07/23 02:23:18;;;;;;;9.20;8.40;;;;;;;23.19;65.21;97576.88;6191131;28;20233;-85
2022/07/23 02:26:20;;;;;;;9.17;8.37;;;;;;;23.07;66.08;97574.97;6189484;28;20615;-86
2022/07/23 02:29:25;;;;;;;9.20;8.37;;;;;;;22.89;66.83;97589.03;6209083;28;20250;-86
2022/07/23 02:32:29;;;;;;;9.67;8.77;;;;;;;22.79;67.21;97565.19;6206067;28;20225;-86
2022/07/23 02:35:31;;;;;;;9.67;8.67;;;;;;;22.69;68.02;97527.06;6215412;28;20236;-86
2022/07/23 02:38:35;;;;;;;10.10;8.67;;;;;;;22.59;68.17;97531.16;6229387;28;20223;-87
2022/07/23 02:41:38;;;;;;;8.50;7.70;;;;;;;22.47;68.33;97522.84;6213685;28;20231;-86
2022/07/23 02:44:40;;;;;;;8.33;7.40;;;;;;;22.42;68.43;97512.72;6212998;28;20234;-86
2022/07/23 02:47:43;;;;;;;9.50;8.60;;;;;;;22.44;68.63;97520.56;6213704;28;20277;-85
2022/07/23 02:50:45;;;;;;;9.33;7.90;;;;;;;22.43;68.54;97527.81;6213536;28;20232;-86
2022/07/23 02:53:50;;;;;;;9.93;8.30;;;;;;;22.44;68.77;97528.66;6230809;28;20270;-85
2022/07/23 02:56:52;;;;;;;8.60;7.90;;;;;;;22.42;68.54;97518.09;6213915;28;20239;-85
2022/07/23 02:59:54;;;;;;;9.40;8.40;;;;;;;22.36;69.49;97507.31;6213365;28;20232;-86
2022/07/23 03:02:56;;;;;;;9.63;8.53;;;;;;;22.22;70.01;97503.75;6212277;28;20796;-86
2022/07/23 03:05:58;;;;;;;9.20;8.40;;;;;;;22.15;70.00;97508.25;6213695;28;20232;-84
2022/07/23 03:09:01;;;;;;;9.30;8.50;;;;;;;22.14;70.60;97516.53;6196309;28;20574;-84
2022/07/23 03:12:04;;;;;;;8.87;8.17;;;;;;;22.12;70.79;97521.25;6212621;28;20262;-86
2022/07/23 03:15:12;;;;;;;8.83;7.93;;;;;;;22.12;70.90;97532.03;6204358;28;20225;-85
2022/07/23 03:18:14;;;;;;;10.00;9.20;;;;;;;22.08;70.95;97545.03;6198617;28;20588;-85
2022/07/23 03:21:17;;;;;;;10.20;9.20;;;;;;;22.03;70.38;97558.25;6205164;28;20212;-85
2022/07/23 03:24:19;;;;;;;9.37;8.47;;;;;;;22.03;70.48;97575.19;6204859;28;20609;-85
2022/07/23 03:27:26;;;;;;;9.80;8.80;;;;;;;22.05;70.45;97577.69;6213562;28;20343;-86
2022/07/23 03:30:29;;;;;;;9.83;8.83;;;;;;;22.11;70.17;97576.06;6199127;28;20231;-85
2022/07/23 03:33:31;;;;;;;9.97;9.17;;;;;;;22.17;69.54;97570.69;6228444;28;20319;-85
2022/07/23 03:36:33;;;;;;;9.50;8.60;;;;;;;22.17;69.59;97576.06;6195447;28;20274;-86
2022/07/23 03:39:35;;;;;;;8.87;8.17;;;;;;;22.18;69.75;97588.50;6195801;28;20833;-84
2022/07/23 03:42:39;;;;;;;9.43;8.67;;;;;;;22.20;69.64;97593.69;6204133;28;20599;-85
2022/07/23 03:45:41;;;;;;;8.63;7.93;;;;;;;22.20;69.58;97596.38;6211985;28;20657;-85
2022/07/23 03:48:43;;;;;;;9.77;8.90;;;;;;;22.20;69.59;97607.13;6212693;28;20598;-86
2022/07/23 03:51:46;;;;;;;9.27;8.47;;;;;;;22.08;70.08;97601.47;6195129;28;20270;-86
2022/07/23 03:54:48;;;;;;;9.33;8.50;;;;;;;21.99;70.33;97595.41;6228381;28;20254;-86
2022/07/23 03:57:50;;;;;;;9.43;8.53;;;;;;;21.90;71.07;97609.16;6195345;28;20223;-86
2022/07/23 04:00:52;;;;;;;9.30;8.57;;;;;;;21.90;71.01;97604.63;6212946;28;21606;-85
2022/07/23 04:03:54;;;;;;;8.60;7.90;;;;;;;21.95;70.97;97609.44;6195628;28;20251;-86
2022/07/23 04:06:57;;;;;;;8.87;7.97;;;;;;;21.95;70.92;97634.44;6227789;28;20703;-86
2022/07/23 04:09:59;;;;;;;10.20;9.20;;;;;;;21.96;71.15;97637.97;6194844;28;20242;-85
2022/07/23 04:13:01;;;;;;;9.37;8.60;;;;;;;21.93;70.97;97644.56;6203561;28;20242;-86
2022/07/23 04:16:04;;;;;;;10.03;9.07;;;;;;;21.96;71.24;97646.84;6206038;28;20321;-86
2022/07/23 04:19:06;;;;;;;9.03;8.33;;;;;;;21.98;71.38;97649.38;6233590;28;20327;-86
2022/07/23 04:22:19;;;;;;;9.37;8.57;;;;;;;21.95;71.20;97637.13;6217041;28;20224;-85
2022/07/23 04:25:21;;;;;;;9.50;8.70;;;;;;;21.93;71.85;97644.56;6216905;28;20621;-85
2022/07/23 04:28:24;;;;;;;8.13;7.53;;;;;;;21.93;71.99;97638.34;6232038;28;20738;-85
2022/07/23 04:31:26;;;;;;;8.90;8.13;;;;;;;21.92;72.27;97639.38;6232553;28;20231;-85
2022/07/23 04:34:28;;;;;;;9.57;8.77;;;;;;;21.88;72.46;97641.63;6216792;28;20335;-86
2022/07/23 04:37:30;;;;;;;9.43;8.63;;;;;;;21.88;72.88;97640.78;6232750;28;20235;-85
2022/07/23 04:40:33;;;;;;;9.27;8.50;;;;;;;21.85;73.01;97638.50;6200240;28;20278;-85
2022/07/23 04:43:35;;;;;;;9.77;8.97;;;;;;;21.77;73.43;97633.25;6207855;28;20719;-85
2022/07/23 04:46:38;;;;;;;9.23;8.43;;;;;;;21.76;73.55;97635.09;6217703;28;20236;-85
2022/07/23 04:49:43;;;;;;;10.13;9.27;;;;;;;21.75;73.81;97628.09;6215446;28;20590;-85
2022/07/23 04:52:45;;;;;;;9.33;8.53;;;;;;;21.75;73.67;97633.47;6216524;28;20597;-86
2022/07/23 04:55:47;;;;;;;9.57;8.60;;;;;;;21.71;73.94;97627.66;6215216;28;20266;-86
2022/07/23 04:58:49;;;;;;;9.97;9.17;;;;;;;21.72;73.89;97628.47;6198852;28;20609;-86
2022/07/23 05:01:51;;;;;;;8.90;8.10;;;;;;;21.75;74.05;97628.09;6232174;28;20247;-86
2022/07/23 05:04:54;;;;;;;9.53;8.63;;;;;;;21.80;73.68;97633.69;6215805;28;20731;-86
2022/07/23 05:07:56;;;;;;;9.00;8.20;;;;;;;21.89;73.11;97629.84;6215217;28;20243;-86
2022/07/23 05:10:58;;;;;;;8.53;7.73;;;;;;;21.90;73.40;97633.34;6215754;28;20246;-86
2022/07/23 05:14:02;;;;;;;9.63;8.67;;;;;;;21.87;72.88;97634.56;6215384;28;20413;-86
2022/07/23 05:17:04;;;;;;;9.17;8.37;;;;;;;21.93;72.53;97632.97;6232659;28;20226;-86
2022/07/23 05:20:07;;;;;;;8.37;7.67;;;;;;;22.00;71.99;97648.16;6232093;28;20243;-86
2022/07/23 05:23:09;;;;;;;7.53;6.93;;;;;;;22.09;70.91;97648.81;6215220;28;20243;-86
2022/07/23 05:26:12;;;;;;;8.00;7.30;;;;;;;22.38;69.11;97653.97;6223403;28;20254;-86
2022/07/23 05:29:14;;;;;;;7.17;6.57;;;;;;;22.52;68.04;97652.19;6214548;28;20721;-86
2022/07/23 05:32:16;;;;;;;6.10;5.50;;;;;;;22.92;61.88;97658.63;6231410;28;20279;-87
2022/07/23 05:35:26;;;;;;;5.80;5.30;;;;;;;23.52;57.50;97656.94;6214619;28;20234;-85
2022/07/23 05:38:50;;;;;;;8.93;5.20;;;;;;;23.98;55.41;97658.78;6214247;28;20235;-86
2022/07/23 05:41:52;;;;;;;6.07;5.57;;;;;;;24.30;54.68;97667.91;6231300;28;20715;-86
2022/07/23 05:44:54;;;;;;;4.93;4.60;;;;;;;24.54;54.50;97664.56;6231481;28;20251;-86
2022/07/23 05:47:56;;;;;;;7.05;5.40;;;;;;;24.67;54.62;97660.97;6230793;28;20223;-86
2022/07/23 05:51:06;;;;;;;5.30;4.90;;;;;;;24.89;54.02;97667.75;6198401;28;20593;-86
2022/07/23 05:54:09;;;;;;;5.68;5.10;;;;;;;25.03;53.60;97661.28;6204457;28;20192;-86
2022/07/23 05:57:13;;;;;;;5.38;4.95;;;;;;;25.22;53.59;97660.34;6213948;28;20220;-85
2022/07/23 06:00:15;;;;;;;5.70;5.30;;;;;;;25.37;54.13;97671.69;6230111;28;20228;-86
2022/07/23 06:03:20;;;;;;;5.90;5.30;;;;;;;25.41;54.26;97663.16;6230621;28;20208;-86
2022/07/23 06:06:22;;;;;;;5.50;5.00;;;;;;;25.47;54.36;97673.06;6213783;28;20817;-87
2022/07/23 06:09:25;;;;;;;6.00;5.50;;;;;;;25.48;54.45;97670.16;6214003;28;20269;-85
2022/07/23 06:12:27;;;;;;;7.22;6.38;;;;;;;25.54;54.85;97668.47;6215058;28;20231;-86
2022/07/23 06:15:30;;;;;;;7.25;6.22;;;;;;;25.59;54.16;97665.94;6213566;28;20230;-85
2022/07/23 06:18:32;;;;;;;6.05;5.55;;;;;;;25.65;53.93;97671.31;6214586;28;20235;-86
2022/07/23 06:21:34;;;;;;;6.22;5.80;;;;;;;25.59;54.02;97680.28;6190480;28;20236;-86
2022/07/23 06:24:52;;;;;;;6.72;6.10;;;;;;;25.53;54.46;97678.47;6231139;28;20333;-86
2022/07/23 06:27:55;;;;;;;6.32;5.72;;;;;;;25.58;53.75;97694.00;6214872;28;20242;-86
2022/07/23 06:30:57;;;;;;;6.43;5.88;;;;;;;25.65;52.60;97687.53;6232506;28;20235;-87
2022/07/23 06:34:00;;;;;;;6.60;6.10;;;;;;;25.85;51.75;97681.19;6215122;28;20377;-87
2022/07/23 06:37:02;;;;;;;5.80;5.30;;;;;;;26.03;51.08;97676.66;6215803;28;20297;-86
2022/07/23 06:40:05;;;;;;;7.75;5.80;;;;;;;26.19;51.07;97680.66;6201201;28;20247;-86
2022/07/23 06:43:10;;;;;;;5.88;5.32;;;;;;;26.23;51.49;97664.81;6220089;28;20235;-85
2022/07/23 06:46:12;;;;;;;6.93;5.78;;;;;;;26.27;49.20;97668.75;6222157;28;20231;-88
2022/07/23 06:49:14;;;;;;;5.90;5.40;;;;;;;26.65;49.00;97668.59;6221115;28;20242;-90
2022/07/23 06:52:16;;;;;;;6.20;5.60;;;;;;;26.92;48.54;97663.72;6207480;28;20231;-89
2022/07/23 06:55:19;;;;;;;5.13;4.70;;;;;;;27.02;47.73;97669.41;6207512;28;20231;-90
2022/07/23 06:58:21;;;;;;;5.50;5.03;;;;;;;27.30;46.42;97679.69;6205807;28;20782;-89
2022/07/23 07:01:23;;;;;;;5.57;5.07;;;;;;;27.48;45.99;97672.31;6217071;28;20714;-89
2022/07/23 07:04:25;;;;;;;5.75;5.20;;;;;;;27.58;45.10;97676.38;6199581;28;20323;-89
2022/07/23 07:07:27;;;;;;;5.05;4.57;;;;;;;27.49;45.02;97678.56;6210387;28;20243;-88
2022/07/23 07:10:30;;;;;;;4.65;4.25;;;;;;;27.75;44.50;97680.09;6201532;28;20710;-89
2022/07/23 07:13:32;;;;;;;5.35;4.82;;;;;;;28.00;43.67;97682.63;6213644;28;20241;-89
2022/07/23 07:16:34;;;;;;;6.38;4.05;;;;;;;28.30;43.29;97677.94;6198008;28;20582;-89
2022/07/23 07:19:36;;;;;;;4.28;3.88;;;;;;;28.66;42.62;97679.56;6231054;28;20587;-89
2022/07/23 07:22:38;;;;;;;4.50;4.10;;;;;;;28.41;42.10;97671.69;6197567;28;20227;-89
2022/07/23 08:25:50;;;;;;;4.68;4.18;;;;;;;30.65;36.77;97680.28;4106292;28;22209;-86
2022/07/23 08:28:52;;;;;;;4.70;4.30;;;;;;;31.08;35.81;97684.97;6162568;28;20676;-89
2022/07/23 08:31:54;;;;;;;4.80;4.40;;;;;;;31.70;35.48;97668.22;6175343;28;20326;-90
2022/07/23 08:34:56;;;;;;;4.65;4.22;;;;;;;31.99;34.78;97666.00;6188659;28;20370;-89
2022/07/23 08:38:01;;;;;;;4.80;4.40;;;;;;;31.73;35.32;97670.44;6188800;28;20601;-90
2022/07/23 08:41:04;;;;;;;4.88;4.47;;;;;;;31.57;36.08;97678.69;6187968;28;20712;-90
2022/07/23 08:44:07;;;;;;;5.50;5.00;;;;;;;31.71;35.51;97672.59;6203290;28;20252;-90
2022/07/23 08:47:11;;;;;;;5.88;4.65;;;;;;;32.31;34.29;97668.75;6188118;28;20228;-90
2022/07/23 08:50:13;;;;;;;4.97;4.53;;;;;;;32.38;34.57;97668.50;6186200;28;20251;-89
2022/07/23 08:53:17;;;;;;;4.55;4.15;;;;;;;32.79;33.77;97669.59;6186569;28;20231;-89
2022/07/23 08:56:19;;;;;;;4.55;4.00;;;;;;;33.24;33.25;97663.56;6187973;28;20587;-89
2022/07/23 08:59:21;;;;;;;4.60;4.18;;;;;;;33.03;33.22;97667.28;6204253;28;20343;-89
2022/07/23 09:02:23;;;;;;;5.72;4.72;;;;;;;33.20;32.90;97665.13;6191418;28;20636;-89
2022/07/23 09:05:26;;;;;;;4.70;4.30;;;;;;;33.45;32.48;97669.88;6192129;28;20232;-89
2022/07/23 09:08:37;;;;;;;4.38;3.97;;;;;;;33.71;32.34;97668.84;6167922;28;20324;-89
2022/07/23 09:11:46;;;;;;;4.75;4.20;;;;;;;34.15;31.54;97663.66;6193075;28;20239;-89
2022/07/23 09:14:48;;;;;;;5.15;4.43;;;;;;;34.33;31.38;97659.59;6191422;28;20227;-89
2022/07/23 09:17:50;;;;;;;5.15;4.22;;;;;;;34.60;30.85;97662.84;6174918;28;20243;-89
2022/07/23 09:21:06;;;;;;;4.50;4.20;;;;;;;34.81;29.28;97655.41;6209365;28;20240;-89
2022/07/23 09:24:10;;;;;;;5.15;4.75;;;;;;;34.91;29.57;97658.09;6194678;28;20246;-89
2022/07/23 09:27:13;;;;;;;5.50;4.60;;;;;;;34.72;29.73;97644.16;6117025;28;20335;-89
2022/07/23 09:30:15;;;;;;;4.38;3.97;;;;;;;34.89;28.74;97652.06;6169747;28;20214;-89
2022/07/23 09:33:20;;;;;;;4.60;4.20;;;;;;;34.85;29.02;97648.22;6182996;28;20209;-89
2022/07/23 09:36:31;;;;;;;4.82;4.43;;;;;;;35.25;27.92;97649.19;6190985;28;20224;-89
2022/07/23 09:39:34;;;;;;;5.05;4.65;;;;;;;35.39;28.67;97655.72;6191236;28;20650;-89
2022/07/23 09:42:36;;;;;;;4.55;4.22;;;;;;;35.41;28.56;97648.00;6191558;28;20667;-89
2022/07/23 09:45:39;;;;;;;4.55;4.25;;;;;;;35.60;28.47;97650.91;6191143;28;20243;-88
2022/07/23 09:48:41;;;;;;;5.05;4.55;;;;;;;35.68;27.53;97653.06;6175342;28;20232;-89
2022/07/23 09:51:56;;;;;;;4.75;4.45;;;;;;;35.81;27.41;97652.44;6207225;28;20251;-89
2022/07/23 09:55:01;;;;;;;5.13;4.72;;;;;;;35.69;27.69;97646.44;6191381;28;20243;-89
2022/07/23 09:58:10;;;;;;;5.20;4.78;;;;;;;35.62;27.92;97641.28;6166550;28;20244;-89
2022/07/23 10:01:13;;;;;;;4.97;4.57;;;;;;;35.63;28.26;97644.84;6182001;28;20244;-88
2022/07/23 10:04:16;;;;;;;4.80;4.47;;;;;;;35.91;27.53;97635.06;6167175;28;20236;-89
2022/07/23 10:07:37;;;;;;;4.63;4.28;;;;;;;36.22;26.94;97639.22;6201196;28;20240;-90
2022/07/23 10:11:01;;;;;;;5.18;4.75;;;;;;;36.64;26.72;97640.44;6195986;28;20233;-89
2022/07/23 10:14:26;;;;;;;5.95;4.95;;;;;;;36.82;26.05;97623.19;6178756;28;20233;-89
2022/07/23 10:17:31;;;;;;;5.70;5.20;;;;;;;36.48;26.09;97626.84;6168362;28;20229;-89
2022/07/23 10:20:34;;;;;;;5.13;4.72;;;;;;;36.63;26.47;97617.63;6151374;28;20229;-88
2022/07/23 10:23:48;;;;;;;4.70;4.30;;;;;;;35.98;26.44;97630.03;6179882;28;20591;-89
2022/07/23 10:27:27;;;;;;;5.13;4.72;;;;;;;35.53;26.50;97636.69;6176919;28;20244;-89
2022/07/23 10:30:59;;;;;;;6.22;4.80;;;;;;;35.64;26.59;97635.53;6190459;28;20596;-90
2022/07/23 10:34:21;;;;;;;7.47;4.95;;;;;;;36.51;26.46;97634.50;6191331;28;20298;-89
2022/07/23 10:37:32;;;;;;;5.63;5.22;;;;;;;36.55;26.79;97627.31;6171170;28;20225;-89
2022/07/23 10:40:35;;;;;;;5.60;5.07;;;;;;;37.10;26.14;97637.97;6163200;28;20731;-89
2022/07/23 10:43:37;;;;;;;9.18;5.20;;;;;;;37.44;25.76;97630.34;6190952;28;20251;-89
2022/07/23 10:50:35;;;;;;;5.93;5.45;;;;;;;38.13;24.65;97622.44;6182555;28;20582;-89
2022/07/23 10:53:51;;;;;;;5.35;4.95;;;;;;;37.46;26.13;97619.03;6179572;28;20229;-89
2022/07/23 10:56:56;;;;;;;5.93;5.43;;;;;;;37.39;25.30;97627.69;6202612;28;20240;-89
2022/07/23 11:00:12;;;;;;;4.68;4.30;;;;;;;37.26;25.41;97618.22;6205966;28;20315;-89
2022/07/23 11:03:40;;;;;;;5.70;5.00;;;;;;;36.62;26.07;97620.66;6204753;28;20319;-88
2022/07/23 11:06:48;;;;;;;5.10;4.60;;;;;;;35.76;27.61;97625.00;6187305;28;20262;-88
2022/07/23 11:09:50;;;;;;;5.47;5.07;;;;;;;35.25;27.95;97628.06;6173086;28;20236;-89
2022/07/23 11:12:52;;;;;;;6.70;5.13;;;;;;;35.84;27.29;97616.97;6188004;28;20229;-88
2022/07/23 11:16:00;;;;;;;5.40;4.95;;;;;;;36.38;26.41;97604.13;6173092;28;20239;-89
2022/07/23 11:19:08;;;;;;;5.70;5.20;;;;;;;36.83;25.72;97598.16;6172626;28;20232;-89
2022/07/23 11:22:36;;;;;;;6.40;5.15;;;;;;;37.11;25.38;97601.91;6190667;28;20232;-89
2022/07/23 11:25:41;;;;;;;5.82;5.32;;;;;;;37.08;25.34;97607.16;6188454;28;20239;-89
2022/07/23 11:28:43;;;;;;;5.30;4.88;;;;;;;36.91;25.84;97602.16;6170584;28;20610;-89
2022/07/23 11:31:52;;;;;;;5.93;5.43;;;;;;;37.12;25.44;97609.03;6180959;28;20776;-89
2022/07/23 11:34:55;;;;;;;6.63;6.03;;;;;;;37.07;25.97;97589.84;6156560;28;20241;-89
2022/07/23 11:38:20;;;;;;;6.10;5.30;;;;;;;37.41;25.83;97595.16;6164869;28;20239;-90
2022/07/23 11:41:22;;;;;;;6.25;5.68;;;;;;;37.40;25.73;97603.72;6170673;28;20237;-89
2022/07/23 11:44:33;;;;;;;7.13;5.50;;;;;;;37.82;25.96;97598.13;6173737;28;20238;-89
2022/07/23 11:47:35;;;;;;;5.95;5.45;;;;;;;38.34;25.28;97590.59;6162689;28;20237;-89
2022/07/23 11:50:38;;;;;;;6.38;5.63;;;;;;;38.27;25.06;97596.53;6164849;28;20221;-89
2022/07/23 11:53:40;;;;;;;5.93;5.47;;;;;;;38.37;24.97;97603.78;6180485;28;20217;-88
2022/07/23 11:56:58;;;;;;;5.57;5.07;;;;;;;37.77;25.86;97609.22;6165049;28;20217;-89
2022/07/23 12:00:07;;;;;;;6.72;6.10;;;;;;;37.21;26.23;97611.97;6180422;28;20237;-88
2022/07/23 12:03:15;;;;;;;6.10;5.50;;;;;;;36.62;27.03;97602.22;6183961;28;20579;-88
2022/07/23 12:06:18;;;;;;;6.78;5.90;;;;;;;36.10;27.36;97605.75;6184136;28;20612;-89
2022/07/23 12:09:21;;;;;;;5.47;4.97;;;;;;;35.77;27.66;97610.97;6184063;28;20225;-89
2022/07/23 12:12:23;;;;;;;5.82;5.22;;;;;;;35.17;28.06;97606.66;6172431;28;20226;-89
2022/07/23 12:15:39;;;;;;;5.47;4.90;;;;;;;34.78;28.76;97598.34;6183241;28;20229;-89
2022/07/23 12:18:41;;;;;;;5.38;4.60;;;;;;;34.76;29.08;97608.78;6177569;28;20690;-89
2022/07/23 12:21:43;;;;;;;5.18;4.72;;;;;;;34.57;29.10;97610.47;6174377;28;20602;-89
2022/07/23 12:24:55;;;;;;;5.25;4.68;;;;;;;34.44;28.93;97603.63;6178589;28;20716;-88
2022/07/23 12:28:06;;;;;;;5.22;4.43;;;;;;;34.33;29.63;97604.78;6197187;28;20225;-88
2022/07/23 12:31:08;;;;;;;5.20;4.18;;;;;;;34.01;29.61;97613.28;6182731;28;20240;-89
2022/07/23 12:34:15;;;;;;;4.65;4.28;;;;;;;33.60;30.36;97613.25;6204230;28;20247;-89
2022/07/23 12:37:36;;;;;;;4.22;3.70;;;;;;;33.59;30.73;97603.41;6212919;28;20234;-89
2022/07/23 12:40:45;;;;;;;4.10;3.80;;;;;;;33.72;30.30;97611.09;6201067;28;20236;-88
2022/07/23 12:43:47;;;;;;;3.72;3.42;;;;;;;33.60;29.82;97624.22;6200049;28;20237;-89
2022/07/23 12:46:52;;;;;;;3.58;3.30;;;;;;;33.68;29.13;97625.56;6188852;28;20244;-88
2022/07/23 12:49:54;;;;;;;4.47;3.45;;;;;;;33.90;28.65;97622.59;6202123;28;20645;-88
2022/07/23 12:53:15;;;;;;;4.28;3.08;;;;;;;34.32;27.75;97625.88;6193773;28;20228;-88
2022/07/23 12:56:33;;;;;;;3.30;3.00;;;;;;;34.66;26.78;97638.94;6213480;28;20239;-89
2022/07/23 12:59:37;;;;;;;3.20;2.75;;;;;;;34.59;26.38;97635.69;6199917;28;20233;-89
2022/07/23 13:02:46;;;;;;;2.75;2.55;;;;;;;35.03;26.41;97628.44;6192638;28;20224;-89
2022/07/23 13:05:48;;;;;;;3.67;2.45;;;;;;;35.68;25.31;97631.06;6204348;28;20632;-89
2022/07/23 13:08:50;;;;;;;3.17;2.88;;;;;;;35.80;24.28;97626.06;6192427;28;20604;-89
2022/07/23 13:11:55;;;;;;;2.60;2.40;;;;;;;36.12;23.28;97625.53;6208832;28;20236;-88
2022/07/23 13:14:57;;;;;;;2.80;2.60;;;;;;;36.01;23.50;97622.06;6199522;28;20759;-89
2022/07/23 13:18:00;;;;;;;2.60;2.40;;;;;;;35.73;24.07;97620.09;6209227;28;20731;-89
2022/07/23 13:21:05;;;;;;;11.70;2.72;;;;;;;35.72;23.17;97619.25;6183961;28;20280;-89
2022/07/23 13:24:09;;;;;;;2.92;2.72;;;;;;;36.03;23.06;97627.28;6172280;28;20214;-89
2022/07/23 13:27:12;;;;;;;2.70;2.25;;;;;;;36.14;23.09;97626.03;6182234;28;20596;-89
2022/07/23 13:30:14;;;;;;;2.50;2.20;;;;;;;36.16;22.28;97634.81;6206532;28;20205;-88
2022/07/23 13:33:21;;;;;;;2.63;2.33;;;;;;;36.84;21.12;97635.53;6193397;28;20205;-89
2022/07/23 13:36:23;;;;;;;2.42;1.80;;;;;;;37.15;21.74;97638.75;6229684;28;20231;-89
2022/07/23 13:39:25;;;;;;;4.18;2.28;;;;;;;37.14;20.69;97637.06;6196045;28;20884;-89
2022/07/23 13:42:29;;;;;;;3.97;2.28;;;;;;;37.23;21.06;97627.09;6183202;28;20233;-87
2022/07/23 13:45:33;;;;;;;2.47;2.13;;;;;;;37.68;20.66;97627.56;6202860;28;20232;-88
2022/07/23 13:48:35;;;;;;;2.63;2.40;;;;;;;37.61;20.98;97632.63;6209391;28;20255;-89
2022/07/23 13:51:38;;;;;;;2.83;2.58;;;;;;;37.19;21.37;97628.78;6192285;28;20254;-89
2022/07/23 13:54:40;;;;;;;2.50;2.30;;;;;;;37.81;21.39;97625.97;6208956;28;20592;-88
2022/07/23 13:57:43;;;;;;;2.70;2.50;;;;;;;38.28;20.60;97622.16;6195960;28;20797;-88
2022/07/23 14:00:48;;;;;;;2.65;2.10;;;;;;;38.46;20.71;97626.78;6194762;28;20220;-87
2022/07/23 14:03:54;;;;;;;13.27;3.55;;;;;;;37.93;21.39;97618.91;6197373;28;20232;-88
2022/07/23 14:06:57;;;;;;;2.85;2.40;;;;;;;37.87;21.51;97620.06;6191487;28;20244;-88
2022/07/23 14:10:00;;;;;;;4.07;2.30;;;;;;;37.99;21.33;97625.13;6197721;28;20323;-88
2022/07/23 14:13:04;;;;;;;4.00;2.85;;;;;;;37.27;21.85;97633.63;6214730;28;20236;-88
2022/07/23 14:16:07;;;;;;;3.15;2.85;;;;;;;36.50;22.77;97621.88;6205314;28;20244;-88
2022/07/23 14:19:10;;;;;;;2.63;2.42;;;;;;;36.27;23.38;97617.16;6201256;28;20236;-88
2022/07/23 14:22:13;;;;;;;3.58;3.03;;;;;;;35.73;24.23;97609.13;6194613;28;20236;-88
2022/07/23 14:25:17;;;;;;;3.10;2.90;;;;;;;37.27;22.79;97606.09;6226668;28;20229;-88
2022/07/23 14:28:19;;;;;;;3.55;3.25;;;;;;;39.36;20.17;97615.03;6192075;28;20281;-88
2022/07/23 14:31:22;;;;;;;4.07;2.55;;;;;;;41.62;18.29;97599.31;6209533;28;20239;-88
2022/07/23 14:34:24;;;;;;;4.53;3.30;;;;;;;43.30;16.72;97591.41;6185342;28;20583;-89
2022/07/23 14:37:29;;;;;;;3.40;3.10;;;;;;;44.59;15.59;97587.41;6190448;28;20236;-88
2022/07/23 14:40:33;;;;;;;3.10;2.90;;;;;;;44.94;15.27;97586.97;6197657;28;20754;-88
2022/07/23 14:43:37;;;;;;;3.65;3.35;;;;;;;43.94;16.11;97593.81;6202533;28;20717;-90
2022/07/23 14:46:39;;;;;;;6.57;3.28;;;;;;;44.79;14.85;97588.50;6195310;28;20232;-89
2022/07/23 14:49:43;;;;;;;4.20;3.28;;;;;;;45.61;14.37;97582.72;6185806;28;20233;-89
2022/07/23 14:52:49;;;;;;;3.65;3.25;;;;;;;46.17;14.28;97589.09;6190976;28;20225;-89
2022/07/23 14:55:52;;;;;;;3.63;3.33;;;;;;;45.61;14.60;97589.09;6210201;28;21214;-90
2022/07/23 14:58:56;;;;;;;4.05;3.40;;;;;;;44.76;15.11;97587.22;6191213;28;20235;-89
2022/07/23 15:01:59;;;;;;;3.38;3.10;;;;;;;44.27;15.58;97585.47;6208396;28;20229;-89
2022/07/23 15:05:02;;;;;;;5.60;3.20;;;;;;;43.44;15.64;97583.59;6191338;28;20229;-88
2022/07/23 15:08:08;;;;;;;4.32;2.85;;;;;;;44.72;14.90;97575.13;6222779;28;20225;-89
2022/07/23 15:11:10;;;;;;;3.40;3.13;;;;;;;46.31;13.81;97580.31;6180794;28;20308;-89
2022/07/23 15:14:13;;;;;;;3.13;2.92;;;;;;;47.35;12.79;97582.47;6192133;28;20236;-89
2022/07/23 15:17:25;;;;;;;3.30;3.00;;;;;;;47.10;12.61;97583.91;6196419;28;20226;-90
2022/07/23 15:20:27;;;;;;;3.35;3.05;;;;;;;47.17;13.38;97575.69;6203150;28;20236;-87
2022/07/23 15:23:39;;;;;;;3.47;3.17;;;;;;;47.61;12.74;97574.28;6189236;28;20249;-87
2022/07/23 15:26:42;;;;;;;3.70;3.15;;;;;;;47.83;13.19;97586.72;6211352;28;20242;-87
2022/07/23 15:29:44;;;;;;;2.95;2.50;;;;;;;47.48;12.98;97585.97;6209035;28;20242;-86
2022/07/23 15:32:47;;;;;;;3.42;3.17;;;;;;;47.77;12.48;97579.00;6228176;28;20726;-87
2022/07/23 15:35:49;;;;;;;5.68;2.95;;;;;;;47.00;12.76;97579.69;6196757;28;20595;-89